createdAt,value
2017-02-20T00:04:23.143Z,1013.64
2017-02-20T00:09:19.470Z,1013.58
2017-02-20T00:14:16.184Z,1013.55
2017-02-20T00:19:12.779Z,1013.54
2017-02-20T00:24:09.338Z,1013.53
2017-02-20T00:29:06.862Z,1013.46
2017-02-20T00:34:02.702Z,1013.39
2017-02-20T00:38:59.130Z,1013.39
2017-02-20T00:43:55.529Z,1013.37
2017-02-20T00:48:52.003Z,1013.35
2017-02-20T00:53:48.802Z,1013.24
2017-02-20T00:58:45.105Z,1013.35
2017-02-20T01:03:41.729Z,1013.15
2017-02-20T01:08:38.274Z,1013.03
2017-02-20T01:13:35.296Z,1012.95
2017-02-20T01:18:32.017Z,1012.95
2017-02-20T01:23:28.118Z,1012.77
2017-02-20T01:28:24.403Z,1012.82
2017-02-20T01:33:20.869Z,1012.71
2017-02-20T01:38:17.255Z,1012.77
2017-02-20T01:43:14.126Z,1012.68
2017-02-20T01:48:10.988Z,1012.58
2017-02-20T01:53:07.718Z,1012.51
2017-02-20T01:58:03.904Z,1012.43
2017-02-20T02:03:00.551Z,1012.52
2017-02-20T02:07:56.954Z,1012.39
2017-02-20T02:12:52.864Z,1012.34
2017-02-20T02:17:49.388Z,1012.35
2017-02-20T02:22:45.555Z,1012.17
2017-02-20T02:27:42.057Z,1012.07
2017-02-20T02:32:38.349Z,1012.00
2017-02-20T02:37:35.167Z,1011.93
2017-02-20T02:42:32.199Z,1011.88
2017-02-20T02:47:28.545Z,1011.77
2017-02-20T02:52:24.864Z,1011.85
2017-02-20T02:57:21.833Z,1011.95
2017-02-20T03:02:18.336Z,1011.98
2017-02-20T03:07:14.623Z,1011.97
2017-02-20T03:12:11.369Z,1011.94
2017-02-20T03:17:07.688Z,1011.94
2017-02-20T03:22:04.180Z,1012.08
2017-02-20T03:27:01.105Z,1011.87
2017-02-20T03:31:57.543Z,1011.75
2017-02-20T03:36:53.861Z,1011.84
2017-02-20T03:41:50.014Z,1011.85
2017-02-20T03:46:47.229Z,1011.93
2017-02-20T03:51:43.542Z,1011.91
2017-02-20T03:56:40.241Z,1011.90
2017-02-20T04:01:36.670Z,1011.90
2017-02-20T04:06:33.201Z,1011.79
2017-02-20T04:11:29.436Z,1011.53
2017-02-20T04:16:25.750Z,1011.51
2017-02-20T04:21:22.158Z,1011.37
2017-02-20T04:26:18.603Z,1011.27
2017-02-20T04:31:14.883Z,1011.24
2017-02-20T04:36:11.392Z,1011.19
2017-02-20T04:41:07.817Z,1011.28
2017-02-20T04:46:03.800Z,1011.18
2017-02-20T04:51:00.197Z,1011.17
2017-02-20T04:55:57.038Z,1011.13
2017-02-20T05:00:53.479Z,1011.07
2017-02-20T05:05:50.728Z,1011.10
2017-02-20T05:10:47.076Z,1011.09
2017-02-20T05:15:43.255Z,1010.99
2017-02-20T05:20:39.716Z,1010.79
2017-02-20T05:25:36.044Z,1010.85
2017-02-20T05:30:32.494Z,1010.98
2017-02-20T05:35:28.884Z,1010.93
2017-02-20T05:40:26.460Z,1010.91
2017-02-20T05:45:22.576Z,1010.91
2017-02-20T05:50:19.063Z,1010.96
2017-02-20T05:55:15.517Z,1010.93
2017-02-20T06:00:11.860Z,1010.96
2017-02-20T06:05:08.330Z,1010.83
2017-02-20T06:10:04.688Z,1010.75
2017-02-20T06:15:01.276Z,1010.65
2017-02-20T06:19:57.473Z,1010.56
2017-02-20T06:24:54.178Z,1010.57
2017-02-20T06:29:50.467Z,1010.69
2017-02-20T06:34:47.039Z,1010.78
2017-02-20T06:39:43.644Z,1010.61
2017-02-20T06:44:40.152Z,1010.55
2017-02-20T06:49:36.505Z,1010.53
2017-02-20T06:54:32.845Z,1010.57
2017-02-20T06:59:29.335Z,1010.58
2017-02-20T07:04:25.819Z,1010.59
2017-02-20T07:09:22.587Z,1010.58
2017-02-20T07:14:19.290Z,1010.49
2017-02-20T07:19:15.926Z,1010.44
2017-02-20T07:24:12.452Z,1010.31
2017-02-20T07:29:09.128Z,1010.33
2017-02-20T07:34:05.635Z,1010.27
2017-02-20T07:39:01.726Z,1010.23
2017-02-20T07:43:58.368Z,1010.13
2017-02-20T07:53:54.958Z,1010.04
2017-02-20T07:58:51.322Z,1009.95
2017-02-20T08:03:47.786Z,1009.93
2017-02-20T08:08:44.492Z,1009.84
2017-02-20T08:13:40.840Z,1009.76
2017-02-20T08:18:37.380Z,1009.80
2017-02-20T08:23:33.860Z,1009.75
2017-02-20T08:28:29.914Z,1009.63
2017-02-20T08:33:27.312Z,1009.65
2017-02-20T08:38:23.817Z,1009.54
2017-02-20T08:43:20.063Z,1009.56
2017-02-20T08:48:16.547Z,1009.59
2017-02-20T08:53:13.382Z,1009.64
2017-02-20T08:58:09.352Z,1009.61
2017-02-20T09:03:06.118Z,1009.64
2017-02-20T09:08:03.130Z,1009.54
2017-02-20T09:13:00.020Z,1009.53
2017-02-20T09:17:56.598Z,1009.35
2017-02-20T09:22:52.962Z,1009.28
2017-02-20T09:27:49.604Z,1009.23
2017-02-20T09:32:46.230Z,1009.32
2017-02-20T09:37:42.535Z,1009.28
2017-02-20T09:42:39.471Z,1009.12
2017-02-20T09:47:36.703Z,1009.09
2017-02-20T09:52:33.220Z,1009.06
2017-02-20T09:57:29.769Z,1008.98
2017-02-20T10:02:26.341Z,1008.90
2017-02-20T10:07:22.392Z,1008.97
2017-02-20T10:12:19.065Z,1008.98
2017-02-20T10:17:15.048Z,1008.96
2017-02-20T10:22:12.028Z,1008.91
2017-02-20T10:27:08.646Z,1008.86
2017-02-20T10:32:05.346Z,1008.80
2017-02-20T10:37:01.744Z,1008.78
2017-02-20T10:41:58.204Z,1008.81
2017-02-20T10:46:54.706Z,1008.73
2017-02-20T10:51:51.300Z,1008.80
2017-02-20T10:56:49.102Z,1008.76
2017-02-20T11:01:45.233Z,1008.75
2017-02-20T11:06:41.392Z,1008.63
2017-02-20T11:11:38.021Z,1008.53
2017-02-20T11:16:34.954Z,1008.58
2017-02-20T11:21:31.583Z,1008.55
2017-02-20T11:26:28.085Z,1008.58
2017-02-20T11:31:24.426Z,1008.52
2017-02-20T11:36:21.212Z,1008.35
2017-02-20T11:41:17.713Z,1008.38
2017-02-20T11:46:14.356Z,1008.41
2017-02-20T11:51:10.959Z,1008.17
2017-02-20T11:56:07.695Z,1008.16
2017-02-20T12:01:04.071Z,1008.10
2017-02-20T12:06:00.619Z,1007.91
2017-02-20T12:10:57.148Z,1007.70
2017-02-20T12:15:53.675Z,1007.62
2017-02-20T12:20:50.317Z,1007.66
2017-02-20T12:25:46.751Z,1007.49
2017-02-20T12:30:43.349Z,1007.52
2017-02-20T12:35:39.854Z,1007.46
2017-02-20T12:40:36.116Z,1007.46
2017-02-20T12:45:32.522Z,1007.56
2017-02-20T12:50:30.514Z,1007.53
2017-02-20T12:55:26.662Z,1007.31
2017-02-20T13:00:23.233Z,1007.36
2017-02-20T13:05:20.532Z,1007.28
2017-02-20T13:10:18.311Z,1007.32
2017-02-20T13:15:14.524Z,1007.27
2017-02-20T13:20:10.872Z,1007.12
2017-02-20T13:25:07.314Z,1007.01
2017-02-20T13:30:03.521Z,1007.08
2017-02-20T13:34:59.875Z,1006.68
2017-02-20T13:39:56.430Z,1006.63
2017-02-20T13:44:54.290Z,1006.70
2017-02-20T13:49:50.571Z,1006.74
2017-02-20T13:54:47.312Z,1006.76
2017-02-20T13:59:43.842Z,1006.82
2017-02-20T14:04:40.409Z,1006.88
2017-02-20T14:09:36.753Z,1006.85
2017-02-20T14:14:33.329Z,1006.62
2017-02-20T14:19:29.945Z,1006.55
2017-02-20T14:24:26.771Z,1006.35
2017-02-20T14:29:23.285Z,1006.30
2017-02-20T14:34:19.811Z,1006.28
2017-02-20T14:39:16.261Z,1006.29
2017-02-20T14:44:13.184Z,1006.30
2017-02-20T14:49:09.746Z,1006.26
2017-02-20T14:54:06.657Z,1006.08
2017-02-20T14:59:03.173Z,1006.03
2017-02-20T15:03:59.641Z,1006.06
2017-02-20T15:08:56.256Z,1005.95
2017-02-20T15:13:52.640Z,1006.09
2017-02-20T15:18:48.706Z,1006.29
2017-02-20T15:23:44.956Z,1006.30
2017-02-20T15:28:42.324Z,1006.23
2017-02-20T15:33:38.518Z,1006.32
2017-02-20T15:38:34.921Z,1006.12
2017-02-20T15:43:31.742Z,1006.11
2017-02-20T15:48:28.942Z,1006.24
2017-02-20T15:53:25.376Z,1006.10
2017-02-20T15:58:21.723Z,1005.98
2017-02-20T16:03:18.163Z,1006.05
2017-02-20T16:08:14.751Z,1005.94
2017-02-20T16:13:11.181Z,1005.95
2017-02-20T16:18:07.693Z,1005.85
2017-02-20T16:23:03.885Z,1005.90
2017-02-20T16:28:00.380Z,1006.05
2017-02-20T16:32:56.719Z,1005.91
2017-02-20T16:37:53.519Z,1006.08
2017-02-20T16:42:50.179Z,1006.22
2017-02-20T16:47:46.771Z,1006.04
2017-02-20T16:52:42.900Z,1006.00
2017-02-20T16:57:39.358Z,1005.88
2017-02-20T17:02:36.073Z,1005.98
2017-02-20T17:07:32.899Z,1006.13
2017-02-20T17:12:29.349Z,1006.23
2017-02-20T17:17:25.677Z,1006.11
2017-02-20T17:22:22.097Z,1006.09
2017-02-20T17:27:18.626Z,1006.01
2017-02-20T17:32:15.329Z,1006.08
2017-02-20T17:37:11.905Z,1006.21
2017-02-20T17:42:08.196Z,1006.40
2017-02-20T17:47:04.778Z,1006.35
2017-02-20T17:52:01.499Z,1006.37
2017-02-20T17:56:57.740Z,1006.36
2017-02-20T18:01:54.402Z,1006.48
2017-02-20T18:06:50.998Z,1006.39
2017-02-20T18:11:47.318Z,1006.50
2017-02-20T18:16:44.024Z,1006.40
2017-02-20T18:21:40.605Z,1006.46
2017-02-20T18:26:37.920Z,1006.29
2017-02-20T18:31:35.191Z,1006.29
2017-02-20T18:36:32.541Z,1006.13
2017-02-20T18:41:28.983Z,1006.15
2017-02-20T18:46:25.445Z,1006.05
2017-02-20T18:51:21.880Z,1006.06
2017-02-20T18:56:17.937Z,1005.98
2017-02-20T19:01:14.412Z,1005.98
2017-02-20T19:06:10.697Z,1005.76
2017-02-20T19:11:07.564Z,1005.90
2017-02-20T19:16:04.003Z,1005.84
2017-02-20T19:21:00.511Z,1005.87
2017-02-20T19:25:57.282Z,1005.76
2017-02-20T19:30:53.577Z,1005.67
2017-02-20T19:35:51.022Z,1005.64
2017-02-20T19:40:48.284Z,1005.46
2017-02-20T19:45:44.620Z,1005.48
2017-02-20T19:50:41.234Z,1005.38
2017-02-20T19:55:37.778Z,1005.44
2017-02-20T20:00:34.196Z,1005.53
2017-02-20T20:05:30.657Z,1005.42
2017-02-20T20:10:27.079Z,1005.51
2017-02-20T20:15:23.666Z,1005.47
2017-02-20T20:20:20.145Z,1005.60
2017-02-20T20:25:16.585Z,1005.62
2017-02-20T20:30:14.226Z,1005.60
2017-02-20T20:35:10.574Z,1005.53
2017-02-20T20:40:07.386Z,1005.58
2017-02-20T20:45:04.012Z,1005.59
2017-02-20T20:50:01.885Z,1005.53
2017-02-20T20:54:58.357Z,1005.58
2017-02-20T20:59:55.122Z,1005.63
2017-02-20T21:04:51.706Z,1005.60
2017-02-20T21:09:48.363Z,1005.54
2017-02-20T21:14:44.911Z,1005.48
2017-02-20T21:19:41.646Z,1005.45
2017-02-20T21:24:38.504Z,1005.44
2017-02-20T21:29:35.022Z,1005.43
2017-02-20T21:34:31.804Z,1005.34
2017-02-20T21:39:28.538Z,1005.36
2017-02-20T21:44:24.802Z,1005.25
2017-02-20T21:49:22.263Z,1005.32
2017-02-20T21:54:18.744Z,1005.40
2017-02-20T21:59:15.433Z,1005.21
2017-02-20T22:04:12.184Z,1005.25
2017-02-20T22:09:09.123Z,1005.28
2017-02-20T22:14:05.246Z,1005.34
2017-02-20T22:19:02.678Z,1005.30
2017-02-20T22:23:58.806Z,1005.30
2017-02-20T22:28:56.104Z,1005.13
2017-02-20T22:33:52.876Z,1005.12
2017-02-20T22:38:49.427Z,1005.00
2017-02-20T22:43:45.878Z,1005.01
2017-02-20T22:48:42.290Z,1005.08
2017-02-20T22:53:38.847Z,1005.09
2017-02-20T22:58:35.589Z,1005.14
2017-02-20T23:03:32.029Z,1005.17
2017-02-20T23:08:28.549Z,1005.19
2017-02-20T23:13:25.039Z,1005.15
2017-02-20T23:18:21.635Z,1005.23
2017-02-20T23:23:18.206Z,1005.15
2017-02-20T23:28:14.567Z,1005.19
2017-02-20T23:33:10.910Z,1005.08
2017-02-20T23:38:08.667Z,1005.10
2017-02-20T23:43:04.893Z,1005.13
2017-02-20T23:48:01.885Z,1005.13
2017-02-20T23:52:58.811Z,1005.19
2017-02-20T23:57:55.375Z,1005.16
